sensor_id;sensor_type;location;lat;lon;timestamp;pressure;altitude;pressure_sealevel;temperature;humidity
19676;BME280;39539;52.202;9.876;2023-02-28T00:00:16;102313.03;;;0.07;100.00
19676;BME280;39539;52.202;9.876;2023-02-28T00:02:42;102324.97;;;0.11;100.00
19676;BME280;39539;52.202;9.876;2023-02-28T00:05:10;102323.94;;;0.13;100.00
19676;BME280;39539;52.202;9.876;2023-02-28T00:07:35;102315.91;;;0.16;100.00
19676;BME280;39539;52.202;9.876;2023-02-28T00:10:01;102317.47;;;0.19;100.00
19676;BME280;39539;52.202;9.876;2023-02-28T00:12:27;102306.31;;;0.03;100.00
19676;BME280;39539;52.202;9.876;2023-02-28T00:14:52;102318.34;;;0.05;100.00
19676;BME280;39539;52.202;9.876;2023-02-28T00:17:18;102315.09;;;0.02;100.00
19676;BME280;39539;52.202;9.876;2023-02-28T00:19:47;102313.91;;;-0.07;100.00
19676;BME280;39539;52.202;9.876;2023-02-28T00:22:13;102310.28;;;-0.05;100.00
19676;BME280;39539;52.202;9.876;2023-02-28T00:24:38;102310.66;;;-0.11;100.00
19676;BME280;39539;52.202;9.876;2023-02-28T00:27:04;102312.28;;;-0.22;100.00
19676;BME280;39539;52.202;9.876;2023-02-28T00:29:30;102312.63;;;-0.29;100.00
19676;BME280;39539;52.202;9.876;2023-02-28T00:31:56;102315.00;;;-0.38;100.00
19676;BME280;39539;52.202;9.876;2023-02-28T00:34:21;102293.72;;;-0.61;100.00
19676;BME280;39539;52.202;9.876;2023-02-28T00:36:47;102298.75;;;-0.86;100.00
19676;BME280;39539;52.202;9.876;2023-02-28T00:39:15;102303.59;;;-0.95;100.00
19676;BME280;39539;52.202;9.876;2023-02-28T00:41:41;102299.31;;;-0.96;100.00
19676;BME280;39539;52.202;9.876;2023-02-28T00:44:06;102298.44;;;-1.10;100.00
19676;BME280;39539;52.202;9.876;2023-02-28T00:46:33;102294.78;;;-1.22;100.00
19676;BME280;39539;52.202;9.876;2023-02-28T00:48:58;102292.47;;;-1.27;100.00
19676;BME280;39539;52.202;9.876;2023-02-28T00:51:23;102296.66;;;-1.24;100.00
19676;BME280;39539;52.202;9.876;2023-02-28T00:53:49;102289.94;;;-1.28;100.00
19676;BME280;39539;52.202;9.876;2023-02-28T00:56:14;102297.72;;;-1.43;100.00
19676;BME280;39539;52.202;9.876;2023-02-28T00:58:39;102297.22;;;-1.49;100.00
19676;BME280;39539;52.202;9.876;2023-02-28T01:01:05;102305.31;;;-1.54;100.00
19676;BME280;39539;52.202;9.876;2023-02-28T01:03:31;102315.19;;;-1.45;100.00
19676;BME280;39539;52.202;9.876;2023-02-28T01:05:57;102316.06;;;-1.44;100.00
19676;BME280;39539;52.202;9.876;2023-02-28T01:08:23;102309.81;;;-1.42;100.00
19676;BME280;39539;52.202;9.876;2023-02-28T01:10:48;102311.75;;;-1.45;100.00
19676;BME280;39539;52.202;9.876;2023-02-28T01:13:15;102325.31;;;-1.54;100.00
19676;BME280;39539;52.202;9.876;2023-02-28T01:15:45;102311.41;;;-1.69;100.00
19676;BME280;39539;52.202;9.876;2023-02-28T01:18:12;102299.97;;;-1.83;100.00
19676;BME280;39539;52.202;9.876;2023-02-28T01:20:38;102309.16;;;-1.91;100.00
19676;BME280;39539;52.202;9.876;2023-02-28T01:23:03;102317.66;;;-2.04;100.00
19676;BME280;39539;52.202;9.876;2023-02-28T01:25:29;102308.31;;;-2.08;100.00
19676;BME280;39539;52.202;9.876;2023-02-28T01:27:54;102310.59;;;-2.17;100.00
19676;BME280;39539;52.202;9.876;2023-02-28T01:30:20;102326.88;;;-2.14;100.00
19676;BME280;39539;52.202;9.876;2023-02-28T01:32:45;102309.97;;;-2.22;100.00
19676;BME280;39539;52.202;9.876;2023-02-28T01:35:11;102312.09;;;-2.29;100.00
19676;BME280;39539;52.202;9.876;2023-02-28T01:37:36;102309.56;;;-2.31;100.00
19676;BME280;39539;52.202;9.876;2023-02-28T01:40:03;102324.41;;;-2.33;100.00
19676;BME280;39539;52.202;9.876;2023-02-28T01:42:28;102304.41;;;-2.48;100.00
19676;BME280;39539;52.202;9.876;2023-02-28T01:47:45;102307.69;;;-2.44;100.00
19676;BME280;39539;52.202;9.876;2023-02-28T01:50:15;102314.66;;;-2.45;100.00
19676;BME280;39539;52.202;9.876;2023-02-28T01:52:42;102312.00;;;-2.43;100.00
19676;BME280;39539;52.202;9.876;2023-02-28T01:55:10;102313.66;;;-2.42;100.00
19676;BME280;39539;52.202;9.876;2023-02-28T01:57:43;102308.69;;;-2.47;100.00
19676;BME280;39539;52.202;9.876;2023-02-28T02:00:14;102314.72;;;-2.46;100.00
19676;BME280;39539;52.202;9.876;2023-02-28T02:02:46;102313.22;;;-2.51;100.00
19676;BME280;39539;52.202;9.876;2023-02-28T02:05:16;102312.88;;;-2.60;100.00
19676;BME280;39539;52.202;9.876;2023-02-28T02:07:44;102315.34;;;-2.75;100.00
19676;BME280;39539;52.202;9.876;2023-02-28T02:13:04;102311.19;;;-2.61;100.00
19676;BME280;39539;52.202;9.876;2023-02-28T02:18:46;102309.19;;;-2.56;100.00
19676;BME280;39539;52.202;9.876;2023-02-28T02:21:41;102301.44;;;-2.58;100.00
19676;BME280;39539;52.202;9.876;2023-02-28T02:34:50;102301.69;;;-2.62;100.00
19676;BME280;39539;52.202;9.876;2023-02-28T02:37:29;102301.53;;;-2.59;100.00
19676;BME280;39539;52.202;9.876;2023-02-28T02:42:45;102296.72;;;-2.67;100.00
19676;BME280;39539;52.202;9.876;2023-02-28T02:45:25;102305.13;;;-2.62;100.00
19676;BME280;39539;52.202;9.876;2023-02-28T02:47:53;102302.75;;;-2.66;100.00
19676;BME280;39539;52.202;9.876;2023-02-28T02:50:36;102284.53;;;-2.82;100.00
19676;BME280;39539;52.202;9.876;2023-02-28T02:53:05;102305.63;;;-2.71;100.00
19676;BME280;39539;52.202;9.876;2023-02-28T02:55:34;102279.09;;;-2.95;100.00
19676;BME280;39539;52.202;9.876;2023-02-28T02:58:04;102304.13;;;-2.92;100.00
19676;BME280;39539;52.202;9.876;2023-02-28T03:00:34;102305.50;;;-2.85;100.00
19676;BME280;39539;52.202;9.876;2023-02-28T03:03:02;102309.44;;;-2.78;100.00
19676;BME280;39539;52.202;9.876;2023-02-28T03:05:35;102315.13;;;-2.87;100.00
19676;BME280;39539;52.202;9.876;2023-02-28T03:08:06;102297.63;;;-3.01;100.00
19676;BME280;39539;52.202;9.876;2023-02-28T03:10:41;102311.69;;;-2.88;100.00
19676;BME280;39539;52.202;9.876;2023-02-28T03:18:57;102310.19;;;-3.09;100.00
19676;BME280;39539;52.202;9.876;2023-02-28T03:21:55;102301.91;;;-3.18;100.00
19676;BME280;39539;52.202;9.876;2023-02-28T03:27:01;102311.72;;;-3.05;100.00
19676;BME280;39539;52.202;9.876;2023-02-28T03:29:35;102315.47;;;-3.11;100.00
19676;BME280;39539;52.202;9.876;2023-02-28T03:34:43;102308.22;;;-3.22;100.00
19676;BME280;39539;52.202;9.876;2023-02-28T03:37:16;102321.50;;;-3.10;100.00
19676;BME280;39539;52.202;9.876;2023-02-28T03:39:47;102323.50;;;-2.98;100.00
19676;BME280;39539;52.202;9.876;2023-02-28T03:42:18;102316.47;;;-2.96;100.00
19676;BME280;39539;52.202;9.876;2023-02-28T03:44:49;102307.88;;;-2.98;100.00
19676;BME280;39539;52.202;9.876;2023-02-28T03:47:30;102327.31;;;-2.88;100.00
19676;BME280;39539;52.202;9.876;2023-02-28T03:50:04;102324.06;;;-2.76;100.00
19676;BME280;39539;52.202;9.876;2023-02-28T03:52:35;102327.28;;;-2.71;100.00
19676;BME280;39539;52.202;9.876;2023-02-28T03:55:05;102320.41;;;-2.72;100.00
19676;BME280;39539;52.202;9.876;2023-02-28T03:57:42;102330.09;;;-2.75;100.00
19676;BME280;39539;52.202;9.876;2023-02-28T04:00:14;102320.41;;;-2.89;100.00
19676;BME280;39539;52.202;9.876;2023-02-28T04:02:42;102319.50;;;-2.88;100.00
19676;BME280;39539;52.202;9.876;2023-02-28T04:05:07;102327.31;;;-2.88;100.00
19676;BME280;39539;52.202;9.876;2023-02-28T04:07:33;102326.47;;;-2.88;100.00
19676;BME280;39539;52.202;9.876;2023-02-28T04:09:59;102309.66;;;-2.99;100.00
19676;BME280;39539;52.202;9.876;2023-02-28T04:12:24;102333.06;;;-2.99;100.00
19676;BME280;39539;52.202;9.876;2023-02-28T04:14:50;102324.88;;;-3.08;100.00
19676;BME280;39539;52.202;9.876;2023-02-28T04:17:16;102320.13;;;-3.18;100.00
19676;BME280;39539;52.202;9.876;2023-02-28T04:19:42;102321.22;;;-3.22;100.00
19676;BME280;39539;52.202;9.876;2023-02-28T04:22:08;102322.34;;;-3.27;100.00
19676;BME280;39539;52.202;9.876;2023-02-28T04:24:34;102316.69;;;-3.35;100.00
19676;BME280;39539;52.202;9.876;2023-02-28T04:27:00;102328.38;;;-3.27;100.00
19676;BME280;39539;52.202;9.876;2023-02-28T04:29:30;102328.47;;;-3.28;100.00
19676;BME280;39539;52.202;9.876;2023-02-28T04:32:00;102324.63;;;-3.39;100.00
19676;BME280;39539;52.202;9.876;2023-02-28T04:34:27;102331.44;;;-3.36;100.00
19676;BME280;39539;52.202;9.876;2023-02-28T04:36:53;102328.53;;;-3.30;100.00
19676;BME280;39539;52.202;9.876;2023-02-28T04:39:20;102336.72;;;-3.20;100.00
19676;BME280;39539;52.202;9.876;2023-02-28T04:41:46;102331.31;;;-3.16;100.00
19676;BME280;39539;52.202;9.876;2023-02-28T04:44:12;102343.81;;;-2.89;100.00
19676;BME280;39539;52.202;9.876;2023-02-28T04:46:37;102348.25;;;-2.74;100.00
19676;BME280;39539;52.202;9.876;2023-02-28T04:49:02;102352.97;;;-2.64;100.00
19676;BME280;39539;52.202;9.876;2023-02-28T04:51:28;102360.03;;;-2.66;100.00
19676;BME280;39539;52.202;9.876;2023-02-28T04:53:53;102362.03;;;-2.72;100.00
19676;BME280;39539;52.202;9.876;2023-02-28T04:56:19;102356.22;;;-2.77;100.00
19676;BME280;39539;52.202;9.876;2023-02-28T04:58:44;102355.19;;;-2.57;100.00
19676;BME280;39539;52.202;9.876;2023-02-28T05:01:20;102354.47;;;-2.43;100.00
19676;BME280;39539;52.202;9.876;2023-02-28T05:03:47;102353.06;;;-2.33;100.00
19676;BME280;39539;52.202;9.876;2023-02-28T05:06:13;102359.47;;;-2.22;100.00
19676;BME280;39539;52.202;9.876;2023-02-28T05:08:38;102353.06;;;-2.33;100.00
19676;BME280;39539;52.202;9.876;2023-02-28T05:11:06;102361.91;;;-2.19;100.00
19676;BME280;39539;52.202;9.876;2023-02-28T05:13:32;102341.16;;;-2.05;100.00
19676;BME280;39539;52.202;9.876;2023-02-28T05:15:57;102359.84;;;-1.97;100.00
19676;BME280;39539;52.202;9.876;2023-02-28T05:18:22;102336.78;;;-2.05;100.00
19676;BME280;39539;52.202;9.876;2023-02-28T05:20:48;102349.31;;;-1.95;100.00
19676;BME280;39539;52.202;9.876;2023-02-28T05:23:14;102341.00;;;-2.02;100.00
19676;BME280;39539;52.202;9.876;2023-02-28T05:25:40;102351.41;;;-2.02;100.00
19676;BME280;39539;52.202;9.876;2023-02-28T05:28:06;102345.34;;;-2.18;100.00
19676;BME280;39539;52.202;9.876;2023-02-28T05:30:32;102343.13;;;-2.42;100.00
19676;BME280;39539;52.202;9.876;2023-02-28T05:32:58;102337.59;;;-2.52;100.00
19676;BME280;39539;52.202;9.876;2023-02-28T05:35:24;102321.75;;;-2.64;100.00
19676;BME280;39539;52.202;9.876;2023-02-28T05:37:49;102323.41;;;-2.79;100.00
19676;BME280;39539;52.202;9.876;2023-02-28T05:40:15;102330.81;;;-2.89;100.00
19676;BME280;39539;52.202;9.876;2023-02-28T05:42:41;102321.44;;;-2.91;100.00
19676;BME280;39539;52.202;9.876;2023-02-28T05:45:07;102320.88;;;-2.98;100.00
19676;BME280;39539;52.202;9.876;2023-02-28T05:47:33;102337.94;;;-2.92;100.00
19676;BME280;39539;52.202;9.876;2023-02-28T05:49:58;102332.69;;;-3.08;100.00
19676;BME280;39539;52.202;9.876;2023-02-28T05:52:25;102333.69;;;-3.11;100.00
19676;BME280;39539;52.202;9.876;2023-02-28T05:54:50;102331.34;;;-3.17;100.00
19676;BME280;39539;52.202;9.876;2023-02-28T05:57:15;102320.13;;;-3.35;100.00
19676;BME280;39539;52.202;9.876;2023-02-28T05:59:41;102328.22;;;-3.41;100.00
19676;BME280;39539;52.202;9.876;2023-02-28T06:02:12;102319.50;;;-3.40;100.00
19676;BME280;39539;52.202;9.876;2023-02-28T06:04:37;102330.38;;;-3.32;100.00
19676;BME280;39539;52.202;9.876;2023-02-28T06:07:04;102334.69;;;-3.31;100.00
19676;BME280;39539;52.202;9.876;2023-02-28T06:09:31;102327.72;;;-3.30;100.00
19676;BME280;39539;52.202;9.876;2023-02-28T06:12:00;102319.03;;;-3.48;100.00
19676;BME280;39539;52.202;9.876;2023-02-28T06:14:28;102331.59;;;-3.56;100.00
19676;BME280;39539;52.202;9.876;2023-02-28T06:16:54;102330.34;;;-3.67;100.00
19676;BME280;39539;52.202;9.876;2023-02-28T06:19:19;102325.44;;;-3.73;100.00
19676;BME280;39539;52.202;9.876;2023-02-28T06:21:50;102342.53;;;-3.69;100.00
19676;BME280;39539;52.202;9.876;2023-02-28T06:24:17;102340.09;;;-3.72;100.00
19676;BME280;39539;52.202;9.876;2023-02-28T06:26:43;102349.91;;;-3.59;100.00
19676;BME280;39539;52.202;9.876;2023-02-28T06:29:08;102353.16;;;-3.37;100.00
19676;BME280;39539;52.202;9.876;2023-02-28T06:31:35;102358.44;;;-3.21;100.00
19676;BME280;39539;52.202;9.876;2023-02-28T06:34:02;102375.44;;;-3.14;100.00
19676;BME280;39539;52.202;9.876;2023-02-28T06:36:27;102368.16;;;-3.07;100.00
19676;BME280;39539;52.202;9.876;2023-02-28T06:38:52;102379.88;;;-2.99;100.00
19676;BME280;39539;52.202;9.876;2023-02-28T06:41:25;102373.06;;;-3.01;100.00
19676;BME280;39539;52.202;9.876;2023-02-28T06:43:52;102390.81;;;-2.92;100.00
19676;BME280;39539;52.202;9.876;2023-02-28T06:46:17;102396.72;;;-2.88;100.00
19676;BME280;39539;52.202;9.876;2023-02-28T06:48:44;102403.91;;;-2.76;100.00
19676;BME280;39539;52.202;9.876;2023-02-28T06:51:16;102407.72;;;-2.66;100.00
19676;BME280;39539;52.202;9.876;2023-02-28T06:53:42;102405.56;;;-2.58;100.00
19676;BME280;39539;52.202;9.876;2023-02-28T06:56:11;102415.97;;;-2.40;100.00
19676;BME280;39539;52.202;9.876;2023-02-28T06:58:37;102416.00;;;-2.24;100.00
19676;BME280;39539;52.202;9.876;2023-02-28T07:01:04;102409.72;;;-2.05;100.00
19676;BME280;39539;52.202;9.876;2023-02-28T07:03:30;102413.22;;;-1.88;100.00
19676;BME280;39539;52.202;9.876;2023-02-28T07:05:57;102416.47;;;-1.85;100.00
19676;BME280;39539;52.202;9.876;2023-02-28T07:08:23;102417.25;;;-1.67;100.00
19676;BME280;39539;52.202;9.876;2023-02-28T07:10:55;102407.94;;;-1.55;100.00
19676;BME280;39539;52.202;9.876;2023-02-28T07:13:21;102426.31;;;-1.26;100.00
19676;BME280;39539;52.202;9.876;2023-02-28T07:16:13;102435.03;;;-0.96;100.00
19676;BME280;39539;52.202;9.876;2023-02-28T07:18:39;102413.28;;;-0.66;100.00
19676;BME280;39539;52.202;9.876;2023-02-28T07:21:07;102430.22;;;0.14;100.00
19676;BME280;39539;52.202;9.876;2023-02-28T07:23:33;102464.69;;;3.17;93.22
19676;BME280;39539;52.202;9.876;2023-02-28T07:25:59;102413.34;;;6.65;71.80
19676;BME280;39539;52.202;9.876;2023-02-28T07:28:25;102381.13;;;9.20;62.07
19676;BME280;39539;52.202;9.876;2023-02-28T07:30:51;102348.06;;;9.40;57.06
19676;BME280;39539;52.202;9.876;2023-02-28T07:33:17;102350.63;;;10.60;54.22
19676;BME280;39539;52.202;9.876;2023-02-28T07:35:43;102335.88;;;11.85;51.63
19676;BME280;39539;52.202;9.876;2023-02-28T07:38:09;102320.59;;;11.87;49.68
19676;BME280;39539;52.202;9.876;2023-02-28T07:40:35;102321.19;;;12.51;48.46
19676;BME280;39539;52.202;9.876;2023-02-28T07:43:01;102280.47;;;10.69;49.36
19676;BME280;39539;52.202;9.876;2023-02-28T07:45:27;102263.69;;;9.18;51.99
19676;BME280;39539;52.202;9.876;2023-02-28T07:47:54;102269.88;;;9.27;54.20
19676;BME280;39539;52.202;9.876;2023-02-28T07:50:20;102284.09;;;10.92;51.80
19676;BME280;39539;52.202;9.876;2023-02-28T07:52:45;102297.28;;;13.11;47.75
19676;BME280;39539;52.202;9.876;2023-02-28T07:55:11;102295.19;;;15.29;43.16
19676;BME280;39539;52.202;9.876;2023-02-28T07:57:36;102284.84;;;16.62;41.21
19676;BME280;39539;52.202;9.876;2023-02-28T08:00:06;102276.69;;;17.22;40.13
19676;BME280;39539;52.202;9.876;2023-02-28T08:02:35;102268.00;;;17.71;39.00
19676;BME280;39539;52.202;9.876;2023-02-28T08:05:00;102254.25;;;16.83;40.36
19676;BME280;39539;52.202;9.876;2023-02-28T08:07:26;102241.25;;;16.53;39.56
19676;BME280;39539;52.202;9.876;2023-02-28T08:09:52;102248.03;;;16.89;39.89
19676;BME280;39539;52.202;9.876;2023-02-28T08:12:17;102258.19;;;18.22;37.66
19676;BME280;39539;52.202;9.876;2023-02-28T08:14:43;102258.59;;;18.76;36.69
19676;BME280;39539;52.202;9.876;2023-02-28T08:17:10;102250.91;;;18.98;36.24
19676;BME280;39539;52.202;9.876;2023-02-28T08:19:35;102244.13;;;18.20;37.07
19676;BME280;39539;52.202;9.876;2023-02-28T08:22:01;102255.38;;;19.41;35.93
19676;BME280;39539;52.202;9.876;2023-02-28T08:24:26;102246.22;;;19.42;35.38
19676;BME280;39539;52.202;9.876;2023-02-28T08:26:51;102244.66;;;18.54;35.33
19676;BME280;39539;52.202;9.876;2023-02-28T08:29:17;102248.22;;;18.73;35.20
19676;BME280;39539;52.202;9.876;2023-02-28T08:31:42;102254.94;;;19.07;35.00
19676;BME280;39539;52.202;9.876;2023-02-28T08:34:09;102244.34;;;16.57;36.97
19676;BME280;39539;52.202;9.876;2023-02-28T08:36:36;102258.41;;;17.50;36.69
19676;BME280;39539;52.202;9.876;2023-02-28T08:39:03;102232.84;;;17.73;35.45
19676;BME280;39539;52.202;9.876;2023-02-28T08:41:29;102241.03;;;16.35;36.22
19676;BME280;39539;52.202;9.876;2023-02-28T08:43:54;102215.16;;;15.13;37.52
19676;BME280;39539;52.202;9.876;2023-02-28T08:46:20;102250.94;;;14.49;38.79
19676;BME280;39539;52.202;9.876;2023-02-28T08:48:46;102216.41;;;10.95;42.76
19676;BME280;39539;52.202;9.876;2023-02-28T08:51:16;102251.91;;;11.66;44.12
19676;BME280;39539;52.202;9.876;2023-02-28T08:53:48;102262.19;;;12.31;43.40
19676;BME280;39539;52.202;9.876;2023-02-28T08:56:16;102273.97;;;13.04;42.47
19676;BME280;39539;52.202;9.876;2023-02-28T08:58:45;102265.88;;;12.83;42.70
19676;BME280;39539;52.202;9.876;2023-02-28T09:01:18;102268.28;;;13.22;41.13
19676;BME280;39539;52.202;9.876;2023-02-28T09:03:45;102244.44;;;12.39;42.67
19676;BME280;39539;52.202;9.876;2023-02-28T09:06:12;102263.94;;;12.39;42.98
19676;BME280;39539;52.202;9.876;2023-02-28T09:08:38;102246.72;;;10.69;45.42
19676;BME280;39539;52.202;9.876;2023-02-28T09:11:04;102231.72;;;9.70;46.79
19676;BME280;39539;52.202;9.876;2023-02-28T09:13:30;102246.97;;;9.68;47.76
19676;BME280;39539;52.202;9.876;2023-02-28T09:16:00;102238.94;;;8.75;49.09
19676;BME280;39539;52.202;9.876;2023-02-28T09:18:26;102231.84;;;7.86;51.23
19676;BME280;39539;52.202;9.876;2023-02-28T09:20:52;102228.88;;;6.79;53.23
19676;BME280;39539;52.202;9.876;2023-02-28T09:23:17;102223.16;;;6.07;55.19
19676;BME280;39539;52.202;9.876;2023-02-28T09:25:52;102249.53;;;6.46;56.68
19676;BME280;39539;52.202;9.876;2023-02-28T09:28:17;102244.81;;;6.01;56.83
19676;BME280;39539;52.202;9.876;2023-02-28T09:30:49;102258.56;;;6.14;57.48
19676;BME280;39539;52.202;9.876;2023-02-28T09:33:16;102289.69;;;7.26;56.16
19676;BME280;39539;52.202;9.876;2023-02-28T09:35:42;102273.91;;;7.89;53.63
19676;BME280;39539;52.202;9.876;2023-02-28T09:38:09;102274.59;;;7.36;54.48
19676;BME280;39539;52.202;9.876;2023-02-28T09:40:50;102273.66;;;7.37;54.32
19676;BME280;39539;52.202;9.876;2023-02-28T09:43:17;102269.72;;;7.13;54.00
19676;BME280;39539;52.202;9.876;2023-02-28T09:45:48;102281.94;;;7.52;53.56
19676;BME280;39539;52.202;9.876;2023-02-28T09:48:21;102287.63;;;7.19;55.06
19676;BME280;39539;52.202;9.876;2023-02-28T09:50:51;102258.94;;;6.78;55.26
19676;BME280;39539;52.202;9.876;2023-02-28T09:53:29;102267.31;;;6.05;57.42
19676;BME280;39539;52.202;9.876;2023-02-28T09:56:11;102275.66;;;5.60;59.79
19676;BME280;39539;52.202;9.876;2023-02-28T09:58:44;102278.06;;;5.82;60.06
19676;BME280;39539;52.202;9.876;2023-02-28T10:01:23;102280.94;;;6.00;58.61
19676;BME280;39539;52.202;9.876;2023-02-28T10:03:57;102308.88;;;6.61;57.99
19676;BME280;39539;52.202;9.876;2023-02-28T10:06:36;102288.34;;;5.76;58.83
19676;BME280;39539;52.202;9.876;2023-02-28T10:09:11;102296.00;;;5.89;59.91
19676;BME280;39539;52.202;9.876;2023-02-28T10:11:39;102294.19;;;5.79;60.30
19676;BME280;39539;52.202;9.876;2023-02-28T10:14:10;102305.00;;;6.36;58.78
19676;BME280;39539;52.202;9.876;2023-02-28T10:16:47;102314.19;;;7.28;56.52
19676;BME280;39539;52.202;9.876;2023-02-28T10:22:10;102314.09;;;8.02;54.58
19676;BME280;39539;52.202;9.876;2023-02-28T10:24:49;102302.16;;;7.43;55.23
19676;BME280;39539;52.202;9.876;2023-02-28T10:27:17;102281.50;;;6.23;57.78
19676;BME280;39539;52.202;9.876;2023-02-28T10:29:49;102263.72;;;5.15;63.27
19676;BME280;39539;52.202;9.876;2023-02-28T10:32:18;102267.91;;;4.97;63.47
19676;BME280;39539;52.202;9.876;2023-02-28T10:34:44;102275.84;;;4.76;64.46
19676;BME280;39539;52.202;9.876;2023-02-28T10:37:11;102278.50;;;4.86;64.57
19676;BME280;39539;52.202;9.876;2023-02-28T10:39:41;102281.28;;;4.42;67.16
19676;BME280;39539;52.202;9.876;2023-02-28T10:42:28;102281.72;;;4.68;66.17
19676;BME280;39539;52.202;9.876;2023-02-28T10:45:09;102298.38;;;4.90;65.88
19676;BME280;39539;52.202;9.876;2023-02-28T10:47:40;102292.09;;;4.81;66.17
19676;BME280;39539;52.202;9.876;2023-02-28T10:55:37;102315.53;;;5.05;65.07
19676;BME280;39539;52.202;9.876;2023-02-28T10:58:20;102297.97;;;4.94;65.26
19676;BME280;39539;52.202;9.876;2023-02-28T11:00:46;102313.91;;;5.14;65.29
19676;BME280;39539;52.202;9.876;2023-02-28T11:05:50;102301.84;;;4.90;66.44
19676;BME280;39539;52.202;9.876;2023-02-28T11:08:17;102308.44;;;5.06;63.29
19676;BME280;39539;52.202;9.876;2023-02-28T11:10:53;102305.47;;;5.20;63.02
19676;BME280;39539;52.202;9.876;2023-02-28T11:13:28;102304.25;;;5.24;61.85
19676;BME280;39539;52.202;9.876;2023-02-28T11:15:57;102298.47;;;5.30;60.76
19676;BME280;39539;52.202;9.876;2023-02-28T11:18:41;102320.50;;;5.60;60.76
19676;BME280;39539;52.202;9.876;2023-02-28T11:21:08;102312.53;;;5.91;60.86
19676;BME280;39539;52.202;9.876;2023-02-28T11:23:36;102311.03;;;5.48;62.17
19676;BME280;39539;52.202;9.876;2023-02-28T11:26:04;102308.34;;;5.78;61.23
19676;BME280;39539;52.202;9.876;2023-02-28T11:28:40;102314.00;;;6.04;60.84
19676;BME280;39539;52.202;9.876;2023-02-28T11:33:54;102277.81;;;5.05;63.54
19676;BME280;39539;52.202;9.876;2023-02-28T11:36:25;102265.97;;;4.36;63.39
19676;BME280;39539;52.202;9.876;2023-02-28T11:38:53;102250.09;;;3.94;65.30
19676;BME280;39539;52.202;9.876;2023-02-28T11:41:21;102268.91;;;4.22;66.62
19676;BME280;39539;52.202;9.876;2023-02-28T11:46:58;102268.66;;;4.25;67.84
19676;BME280;39539;52.202;9.876;2023-02-28T11:49:48;102275.78;;;4.34;62.85
19676;BME280;39539;52.202;9.876;2023-02-28T11:55:01;102267.13;;;4.43;62.65
19676;BME280;39539;52.202;9.876;2023-02-28T12:05:45;102281.41;;;5.34;61.05
19676;BME280;39539;52.202;9.876;2023-02-28T12:11:01;102278.91;;;5.73;59.37
19676;BME280;39539;52.202;9.876;2023-02-28T12:24:44;102243.53;;;5.05;59.22
19676;BME280;39539;52.202;9.876;2023-02-28T12:27:16;102236.78;;;4.60;58.33
19676;BME280;39539;52.202;9.876;2023-02-28T12:32:27;102235.09;;;4.59;59.90
19676;BME280;39539;52.202;9.876;2023-02-28T12:35:00;102227.63;;;4.22;60.78
19676;BME280;39539;52.202;9.876;2023-02-28T12:40:05;102217.75;;;4.36;61.37
19676;BME280;39539;52.202;9.876;2023-02-28T12:42:45;102232.97;;;4.32;60.88
19676;BME280;39539;52.202;9.876;2023-02-28T12:45:27;102222.53;;;4.42;61.20
19676;BME280;39539;52.202;9.876;2023-02-28T12:48:01;102222.31;;;4.01;61.21
19676;BME280;39539;52.202;9.876;2023-02-28T12:50:29;102212.69;;;3.91;62.07
19676;BME280;39539;52.202;9.876;2023-02-28T12:53:10;102211.38;;;3.96;62.32
19676;BME280;39539;52.202;9.876;2023-02-28T12:58:54;102220.69;;;4.21;60.43
19676;BME280;39539;52.202;9.876;2023-02-28T13:04:08;102216.59;;;4.49;59.79
19676;BME280;39539;52.202;9.876;2023-02-28T13:06:58;102213.13;;;4.49;61.13
19676;BME280;39539;52.202;9.876;2023-02-28T13:09:27;102202.56;;;4.39;61.83
19676;BME280;39539;52.202;9.876;2023-02-28T13:11:56;102209.78;;;4.26;61.51
19676;BME280;39539;52.202;9.876;2023-02-28T13:14:36;102197.91;;;3.78;61.64
19676;BME280;39539;52.202;9.876;2023-02-28T13:24:57;102167.50;;;3.53;62.47
19676;BME280;39539;52.202;9.876;2023-02-28T13:27:31;102175.84;;;3.58;62.34
19676;BME280;39539;52.202;9.876;2023-02-28T13:29:57;102175.34;;;3.65;61.61
19676;BME280;39539;52.202;9.876;2023-02-28T13:32:32;102177.03;;;3.66;61.34
19676;BME280;39539;52.202;9.876;2023-02-28T13:39:54;102166.28;;;3.90;59.53
19676;BME280;39539;52.202;9.876;2023-02-28T13:47:33;102169.59;;;4.03;59.20
19676;BME280;39539;52.202;9.876;2023-02-28T14:02:02;102164.19;;;4.04;58.73
19676;BME280;39539;52.202;9.876;2023-02-28T14:07:24;102159.91;;;4.03;58.54
19676;BME280;39539;52.202;9.876;2023-02-28T14:10:06;102156.19;;;4.06;59.04
19676;BME280;39539;52.202;9.876;2023-02-28T14:18:11;102154.69;;;4.13;58.55
19676;BME280;39539;52.202;9.876;2023-02-28T14:20:40;102158.88;;;4.16;58.50
19676;BME280;39539;52.202;9.876;2023-02-28T14:23:32;102161.06;;;4.11;57.85
19676;BME280;39539;52.202;9.876;2023-02-28T14:26:05;102168.72;;;4.14;56.91
19676;BME280;39539;52.202;9.876;2023-02-28T14:29:05;102161.19;;;4.09;57.23
19676;BME280;39539;52.202;9.876;2023-02-28T14:31:46;102161.06;;;4.11;57.70
19676;BME280;39539;52.202;9.876;2023-02-28T14:34:55;102160.81;;;4.14;57.67
19676;BME280;39539;52.202;9.876;2023-02-28T14:37:34;102136.47;;;4.00;57.73
19676;BME280;39539;52.202;9.876;2023-02-28T14:40:03;102165.56;;;4.20;57.41
19676;BME280;39539;52.202;9.876;2023-02-28T14:42:32;102161.03;;;4.22;58.22
19676;BME280;39539;52.202;9.876;2023-02-28T14:44:58;102150.59;;;4.20;59.24
19676;BME280;39539;52.202;9.876;2023-02-28T14:47:28;102157.00;;;4.07;58.55
19676;BME280;39539;52.202;9.876;2023-02-28T14:49:58;102149.06;;;4.18;57.57
19676;BME280;39539;52.202;9.876;2023-02-28T14:52:30;102159.22;;;4.22;57.29
19676;BME280;39539;52.202;9.876;2023-02-28T14:55:05;102149.78;;;4.20;56.39
19676;BME280;39539;52.202;9.876;2023-02-28T14:57:40;102143.09;;;4.16;56.62
19676;BME280;39539;52.202;9.876;2023-02-28T15:00:24;102140.72;;;4.13;57.72
19676;BME280;39539;52.202;9.876;2023-02-28T15:02:51;102147.22;;;4.09;56.79